createdAt,value
2023-04-18T00:03:25.746Z,8.90
2023-04-18T00:09:13.218Z,8.67
2023-04-18T00:15:06.783Z,8.52
2023-04-18T00:20:57.254Z,8.48
2023-04-18T00:33:11.867Z,8.74
2023-04-18T00:39:02.837Z,8.85
2023-04-18T00:44:49.814Z,8.97
2023-04-18T00:50:40.485Z,8.73
2023-04-18T00:56:30.748Z,8.71
2023-04-18T01:02:19.981Z,9.00
2023-04-18T01:08:07.396Z,9.07
2023-04-18T01:14:03.593Z,9.00
2023-04-18T01:19:51.126Z,8.82
2023-04-18T01:25:39.147Z,8.64
2023-04-18T01:31:34.059Z,8.82
2023-04-18T01:37:23.936Z,9.04
2023-04-18T01:43:12.767Z,9.02
2023-04-18T01:49:08.058Z,8.99
2023-04-18T01:54:54.826Z,8.85
2023-04-18T02:00:41.555Z,8.93
2023-04-18T02:06:28.606Z,9.08
2023-04-18T02:12:15.345Z,8.98
2023-04-18T02:18:03.675Z,8.88
2023-04-18T02:23:51.077Z,9.00
2023-04-18T02:29:38.230Z,9.05
2023-04-18T02:35:35.396Z,9.04
2023-04-18T02:41:22.457Z,9.09
2023-04-18T02:47:16.337Z,9.14
2023-04-18T02:53:06.042Z,9.18
2023-04-18T02:59:07.446Z,8.88
2023-04-18T03:05:12.454Z,8.90
2023-04-18T03:10:59.481Z,9.08
2023-04-18T03:16:49.072Z,9.25
2023-04-18T03:22:40.409Z,9.02
2023-04-18T03:28:27.354Z,9.14
2023-04-18T03:34:14.439Z,9.21
2023-04-18T03:40:01.626Z,8.99
2023-04-18T03:45:50.565Z,9.19
2023-04-18T03:51:44.343Z,9.34
2023-04-18T03:57:31.364Z,9.02
2023-04-18T04:03:19.271Z,9.08
2023-04-18T04:09:07.182Z,9.19
2023-04-18T04:14:54.911Z,9.05
2023-04-18T04:20:42.143Z,8.84
2023-04-18T04:26:35.838Z,8.86
2023-04-18T04:32:39.022Z,8.77
2023-04-18T04:38:25.907Z,8.70
2023-04-18T04:44:26.091Z,8.67
2023-04-18T04:50:15.823Z,8.49
2023-04-18T04:56:04.771Z,8.34
2023-04-18T05:01:53.353Z,8.29
2023-04-18T05:07:40.537Z,8.12
2023-04-18T05:13:27.341Z,8.18
2023-04-18T05:19:14.626Z,8.33
2023-04-18T05:25:02.482Z,8.18
2023-04-18T05:30:49.561Z,8.24
2023-04-18T05:36:38.290Z,8.24
2023-04-18T05:42:25.526Z,8.15
2023-04-18T05:48:15.542Z,8.18
2023-04-18T05:54:03.083Z,8.15
2023-04-18T05:59:50.119Z,8.22
2023-04-18T06:05:37.128Z,8.33
2023-04-18T06:11:24.367Z,8.03
2023-04-18T06:17:15.011Z,8.08
2023-04-18T06:23:04.893Z,7.86
2023-04-18T06:29:38.400Z,7.82
2023-04-18T06:35:33.669Z,7.84
2023-04-18T06:41:20.670Z,8.06
2023-04-18T06:47:07.779Z,8.07
2023-04-18T06:52:57.257Z,7.90
2023-04-18T06:59:30.156Z,7.97
2023-04-18T07:05:19.786Z,8.49
2023-04-18T07:11:18.675Z,8.51
2023-04-18T07:17:18.225Z,8.40
2023-04-18T07:23:10.784Z,9.34
2023-04-18T07:28:58.038Z,10.09
2023-04-18T07:34:45.123Z,10.28
2023-04-18T07:40:32.527Z,10.56
2023-04-18T07:46:19.380Z,11.10
2023-04-18T07:52:14.665Z,11.20
2023-04-18T07:58:01.353Z,11.85
2023-04-18T08:03:48.550Z,11.77
2023-04-18T08:09:35.576Z,11.80
2023-04-18T08:15:27.752Z,12.16
2023-04-18T08:21:17.053Z,12.28
2023-04-18T08:27:04.043Z,12.61
2023-04-18T08:32:51.345Z,12.49
2023-04-18T08:38:38.256Z,12.52
2023-04-18T08:44:27.821Z,12.76
2023-04-18T08:50:14.591Z,12.65
2023-04-18T08:56:05.928Z,13.22
2023-04-18T09:01:59.641Z,12.30
2023-04-18T09:07:48.033Z,12.25
2023-04-18T09:13:39.799Z,12.82
2023-04-18T09:19:26.696Z,12.24
2023-04-18T09:25:29.228Z,12.88
2023-04-18T09:31:17.035Z,12.23
2023-04-18T09:37:15.675Z,11.88
2023-04-18T09:43:37.392Z,11.70
2023-04-18T10:10:51.867Z,10.80
2023-04-18T10:24:55.787Z,11.00
2023-04-18T10:30:50.052Z,10.77
2023-04-18T10:44:49.289Z,10.72
2023-04-18T10:51:29.155Z,10.64
2023-04-18T10:57:18.637Z,10.61
2023-04-18T11:03:06.242Z,10.69
2023-04-18T11:09:38.330Z,10.51
2023-04-18T11:15:50.759Z,10.60
2023-04-18T11:21:41.274Z,10.64
2023-04-18T11:27:29.848Z,10.47
2023-04-18T11:42:18.562Z,10.38
2023-04-18T11:48:39.179Z,10.71
2023-04-18T11:54:45.598Z,11.10
2023-04-18T12:00:44.806Z,10.94
2023-04-18T12:07:26.718Z,10.66
2023-04-18T12:20:09.197Z,11.01
2023-04-18T12:26:04.649Z,10.98
2023-04-18T12:31:54.075Z,10.82
2023-04-18T12:37:51.445Z,10.80
2023-04-18T12:43:45.077Z,10.91
2023-04-18T12:49:47.535Z,10.92
2023-04-18T12:55:35.880Z,11.01
2023-04-18T13:02:00.765Z,11.01
2023-04-18T13:08:44.484Z,10.89
2023-04-18T13:14:47.773Z,10.48
2023-04-18T13:20:38.042Z,10.48
2023-04-18T13:26:39.655Z,10.28
2023-04-18T13:32:44.166Z,10.30
2023-04-18T13:38:31.207Z,10.43
2023-04-18T13:44:25.203Z,10.49
2023-04-18T13:50:13.789Z,10.33
2023-04-18T13:56:05.498Z,10.35
2023-04-18T14:01:53.713Z,10.52
2023-04-18T14:07:54.216Z,10.87
2023-04-18T14:13:41.255Z,10.72
2023-04-18T14:19:28.153Z,10.79
2023-04-18T14:25:17.166Z,10.57
2023-04-18T14:31:06.765Z,10.70
2023-04-18T14:36:53.885Z,10.58
2023-04-18T14:42:40.985Z,10.51
2023-04-18T14:48:30.109Z,10.46
2023-04-18T14:54:17.156Z,10.54
2023-04-18T15:00:07.540Z,10.41
2023-04-18T15:05:57.565Z,10.41
2023-04-18T15:11:44.764Z,10.27
2023-04-18T15:17:34.240Z,10.29
2023-04-18T15:23:21.780Z,10.39
2023-04-18T15:29:08.892Z,10.43
2023-04-18T15:34:56.119Z,10.50
2023-04-18T15:40:43.720Z,10.53
2023-04-18T15:46:30.731Z,10.58
2023-04-18T15:52:19.602Z,10.38
2023-04-18T15:58:07.758Z,10.29
2023-04-18T16:03:54.859Z,10.32
2023-04-18T16:09:42.010Z,10.48
2023-04-18T16:15:33.256Z,10.70
2023-04-18T16:21:20.337Z,10.47
2023-04-18T16:27:10.463Z,10.47
2023-04-18T16:32:57.712Z,10.42
2023-04-18T16:38:44.823Z,10.49
2023-04-18T16:44:33.219Z,10.32
2023-04-18T16:50:30.369Z,10.37
2023-04-18T16:56:24.366Z,10.35
2023-04-18T17:02:12.011Z,10.36
2023-04-18T17:08:20.141Z,10.32
2023-04-18T17:14:57.069Z,10.35
2023-04-18T17:20:44.222Z,10.23
2023-04-18T17:26:44.854Z,10.28
2023-04-18T17:32:52.955Z,10.31
2023-04-18T17:38:42.570Z,10.27
2023-04-18T17:44:29.650Z,10.34
2023-04-18T17:50:22.705Z,10.41
2023-04-18T17:56:29.497Z,10.44
2023-04-18T18:02:28.501Z,10.45
2023-04-18T18:08:16.102Z,10.49
2023-04-18T18:14:09.973Z,10.54
2023-04-18T18:19:57.033Z,10.56
2023-04-18T18:25:44.096Z,10.36
2023-04-18T18:31:49.877Z,10.16
2023-04-18T18:37:39.067Z,10.19
2023-04-18T18:43:27.981Z,10.19
2023-04-18T19:28:20.236Z,9.65
2023-04-18T19:34:36.415Z,9.50
2023-04-18T19:41:03.842Z,9.38
2023-04-18T19:54:00.334Z,9.41
2023-04-18T19:59:50.028Z,9.34
2023-04-18T20:06:40.480Z,9.38
2023-04-18T20:13:51.459Z,9.48
2023-04-18T20:19:47.393Z,9.43
2023-04-18T20:53:57.805Z,9.73
2023-04-18T21:00:07.476Z,9.72
2023-04-18T21:06:36.139Z,9.75
2023-04-18T21:12:23.316Z,9.83
2023-04-18T21:18:10.646Z,9.93
2023-04-18T21:23:57.603Z,10.05
2023-04-18T21:44:55.241Z,10.05
2023-04-18T21:50:43.073Z,10.07
2023-04-18T21:56:30.261Z,10.24
2023-04-18T22:02:20.440Z,10.14
2023-04-18T22:15:43.710Z,10.30
2023-04-18T22:21:38.617Z,10.11
2023-04-18T22:27:49.181Z,10.12
2023-04-18T22:33:36.543Z,10.19
2023-04-18T22:39:25.099Z,9.99
2023-04-18T22:45:13.745Z,10.07
2023-04-18T22:51:02.003Z,9.95
2023-04-18T22:56:50.399Z,10.00
2023-04-18T23:02:38.486Z,9.92
2023-04-18T23:08:25.539Z,9.89
2023-04-18T23:14:12.656Z,9.73
2023-04-18T23:19:59.516Z,9.79
2023-04-18T23:25:53.352Z,9.79
2023-04-18T23:31:43.699Z,9.83
2023-04-18T23:37:34.347Z,9.81
2023-04-18T23:43:21.472Z,9.53
2023-04-18T23:49:08.702Z,9.63
2023-04-18T23:54:58.842Z,9.53
